Time;durP1;ratioP1;P1;durP2;ratioP2;P2;SDS_P1;SDS_P2;PMS_P1;PMS_P2;Temp;Humidity;BMP_temperature;BMP_pressure;BME280_temperature;BME280_humidity;BME280_pressure;Samples;Min_cycle;Max_cycle;Signal;HPM_P1;HPM_P2
2022/02/22 00:01:08;;;;;;;20.30;3.93;;;5.70;99.90;;;;;;5071560;28;20250;-69
2022/02/22 00:03:36;;;;;;;26.03;4.17;;;5.70;99.90;;;;;;5071952;28;20202;-69
2022/02/22 00:06:03;;;;;;;35.47;4.90;;;5.70;99.90;;;;;;5070563;28;20234;-69
2022/02/22 00:08:30;;;;;;;25.97;4.17;;;5.70;99.90;;;;;;5070601;28;20206;-69
2022/02/22 00:10:58;;;;;;;20.87;4.10;;;5.60;99.90;;;;;;5070640;28;20202;-69
2022/02/22 00:13:25;;;;;;;25.20;4.57;;;5.60;99.90;;;;;;5175249;22;20239;-68
2022/02/22 00:15:52;;;;;;;30.73;5.70;;;5.60;99.90;;;;;;5013581;28;20274;-68
2022/02/22 00:18:19;;;;;;;20.43;4.00;;;5.60;99.90;;;;;;5029463;28;20203;-68
2022/02/22 00:20:46;;;;;;;30.97;4.73;;;5.60;99.90;;;;;;5028747;28;20569;-69
2022/02/22 00:23:13;;;;;;;27.50;4.40;;;5.70;99.90;;;;;;5031869;28;20556;-69
2022/02/22 00:25:40;;;;;;;23.77;5.47;;;5.80;1.00;;;;;;5027080;28;20234;-69
2022/02/22 00:28:08;;;;;;;20.30;4.00;;;5.90;99.90;;;;;;5031801;28;20203;-69
2022/02/22 00:30:35;;;;;;;19.40;4.63;;;5.90;1.00;;;;;;5029078;28;20269;-69
2022/02/22 00:33:02;;;;;;;23.87;4.20;;;6.00;99.90;;;;;;5015894;28;20207;-66
2022/02/22 00:35:29;;;;;;;25.23;4.60;;;5.90;1.00;;;;;;5028125;28;20199;-66
2022/02/22 00:37:56;;;;;;;25.17;4.00;;;5.90;1.00;;;;;;5024850;28;20200;-67
2022/02/22 00:40:23;;;;;;;15.10;2.90;;;5.90;1.00;;;;;;5017013;28;20658;-67
2022/02/22 00:42:49;;;;;;;13.97;2.40;;;5.70;1.00;;;;;;5034779;28;20222;-67
2022/02/22 00:45:18;;;;;;;10.20;1.90;;;5.20;1.00;;;;;;5030042;28;20536;-67
2022/02/22 00:47:44;;;;;;;16.77;2.43;;;4.80;99.90;;;;;;5017311;28;20669;-67
2022/02/22 00:50:11;;;;;;;8.53;2.03;;;4.60;1.00;;;;;;5027582;28;20196;-66
2022/02/22 00:52:38;;;;;;;10.30;1.90;;;4.50;1.00;;;;;;5033265;28;20203;-67
2022/02/22 00:55:06;;;;;;;10.00;2.20;;;4.40;1.00;;;;;;5015700;28;20208;-67
2022/02/22 00:57:33;;;;;;;11.53;2.07;;;4.50;1.00;;;;;;5021151;28;20192;-67
2022/02/22 01:00:00;;;;;;;18.80;3.53;;;4.60;1.00;;;;;;5033927;28;20204;-67
2022/02/22 01:02:28;;;;;;;18.90;3.17;;;4.90;1.00;;;;;;5033169;28;20200;-67
2022/02/22 01:04:55;;;;;;;18.40;3.93;;;5.00;1.00;;;;;;5031661;28;20214;-66
2022/02/22 01:07:22;;;;;;;22.27;4.40;;;5.10;1.00;;;;;;5014448;28;20246;-66
2022/02/22 01:09:49;;;;;;;21.63;4.47;;;5.30;99.90;;;;;;5016267;28;20213;-67
2022/02/22 01:12:17;;;;;;;27.17;5.90;;;5.30;99.90;;;;;;5033655;28;20652;-67
2022/02/22 01:14:45;;;;;;;22.27;3.57;;;5.30;99.90;;;;;;5026607;28;20214;-67
2022/02/22 01:17:12;;;;;;;21.40;4.00;;;5.30;99.90;;;;;;5008348;28;20206;-67
2022/02/22 01:19:41;;;;;;;24.67;3.87;;;5.30;53.80;;;;;;5031559;28;20274;-67
2022/02/22 01:22:08;;;;;;;22.07;3.77;;;5.30;1.00;;;;;;5020817;28;20207;-67
2022/02/22 01:24:36;;;;;;;21.23;4.07;;;5.30;1.00;;;;;;5017703;28;20200;-67
2022/02/22 01:27:03;;;;;;;26.73;4.67;;;5.40;1.00;;;;;;5032868;28;20669;-67
2022/02/22 01:29:30;;;;;;;22.17;4.87;;;5.30;1.00;;;;;;5031477;28;20209;-67
2022/02/22 01:31:57;;;;;;;29.83;4.43;;;5.40;1.00;;;;;;5014131;28;20211;-67
2022/02/22 01:34:24;;;;;;;23.00;4.30;;;5.30;1.00;;;;;;5014638;28;20210;-67
2022/02/22 01:36:52;;;;;;;26.03;4.37;;;5.30;99.90;;;;;;5032728;28;20203;-67
2022/02/22 01:39:19;;;;;;;20.77;4.30;;;5.30;99.90;;;;;;5025253;28;20202;-67
2022/02/22 01:41:46;;;;;;;26.33;5.00;;;5.30;1.00;;;;;;5019282;28;20208;-67
2022/02/22 01:44:14;;;;;;;22.90;3.47;;;5.20;1.00;;;;;;5016274;28;20197;-67
2022/02/22 01:46:41;;;;;;;15.27;3.70;;;5.20;1.00;;;;;;5019337;28;20220;-67
2022/02/22 01:49:08;;;;;;;22.63;3.90;;;5.10;1.00;;;;;;5014154;28;20205;-67
2022/02/22 01:51:38;;;;;;;25.60;6.17;;;5.20;99.90;;;;;;5030084;28;20227;-67
2022/02/22 01:54:06;;;;;;;21.70;3.87;;;5.20;99.90;;;;;;5010544;28;20204;-67
2022/02/22 01:56:33;;;;;;;20.03;3.90;;;5.10;1.00;;;;;;5022405;28;20196;-67
2022/02/22 01:59:02;;;;;;;22.57;3.93;;;5.10;99.90;;;;;;5017108;28;20210;-67
2022/02/22 02:01:29;;;;;;;27.77;4.83;;;5.20;1.00;;;;;;5017222;28;20204;-67
2022/02/22 02:03:55;;;;;;;20.70;4.00;;;5.20;1.00;;;;;;5013307;28;20230;-67
2022/02/22 02:06:22;;;;;;;22.90;4.10;;;5.20;1.00;;;;;;5019936;28;20224;-67
2022/02/22 02:08:49;;;;;;;18.27;3.73;;;5.20;1.00;;;;;;5013037;28;20207;-67
2022/02/22 02:11:17;;;;;;;25.20;3.90;;;5.20;1.00;;;;;;5013011;28;20654;-67
2022/02/22 02:13:45;;;;;;;27.67;5.23;;;5.30;99.90;;;;;;5021997;28;20298;-67
2022/02/22 02:16:12;;;;;;;23.03;3.63;;;5.30;1.00;;;;;;5032377;28;20235;-67
2022/02/22 02:18:39;;;;;;;21.43;4.17;;;5.30;1.00;;;;;;5033513;28;20207;-67
2022/02/22 02:21:06;;;;;;;22.03;4.67;;;5.20;1.00;;;;;;5033496;28;20204;-67
2022/02/22 02:23:35;;;;;;;23.33;5.10;;;5.20;1.00;;;;;;5032528;28;20212;-67
2022/02/22 02:26:02;;;;;;;24.33;3.90;;;5.20;1.00;;;;;;5032878;28;20212;-66
2022/02/22 02:28:29;;;;;;;18.97;3.50;;;5.30;1.00;;;;;;5032079;28;20210;-66
2022/02/22 02:30:56;;;;;;;19.60;4.27;;;5.30;1.00;;;;;;5032832;28;20606;-66
2022/02/22 02:33:23;;;;;;;29.37;4.10;;;5.30;1.00;;;;;;5032985;28;20646;-67
2022/02/22 02:35:49;;;;;;;21.17;5.13;;;5.20;25.60;;;;;;5031764;28;20208;-66
2022/02/22 02:38:16;;;;;;;25.70;4.23;;;5.20;1.00;;;;;;5032716;28;20202;-66
2022/02/22 02:40:44;;;;;;;21.10;4.60;;;5.20;1.00;;;;;;5032841;28;20203;-67
2022/02/22 02:43:11;;;;;;;24.13;4.67;;;5.20;1.00;;;;;;5032403;28;20202;-67
2022/02/22 02:45:38;;;;;;;24.73;4.50;;;5.20;1.00;;;;;;5032089;28;20226;-67
2022/02/22 02:48:05;;;;;;;27.87;4.87;;;5.20;69.70;;;;;;5031559;28;20225;-66
2022/02/22 02:50:32;;;;;;;27.17;4.63;;;5.20;1.00;;;;;;5032046;28;20215;-67
2022/02/22 02:52:59;;;;;;;22.03;4.63;;;5.20;1.00;;;;;;5031138;28;20684;-66
2022/02/22 02:55:26;;;;;;;18.70;3.60;;;5.30;1.00;;;;;;5031629;28;20192;-66
2022/02/22 02:57:54;;;;;;;18.60;3.60;;;5.20;99.90;;;;;;5031241;28;20594;-66
2022/02/22 03:00:21;;;;;;;23.40;4.20;;;5.10;99.90;;;;;;5032921;28;20200;-66
2022/02/22 03:02:48;;;;;;;16.97;3.30;;;5.00;1.00;;;;;;5031846;28;20211;-66
2022/02/22 03:05:15;;;;;;;28.73;3.80;;;5.00;1.00;;;;;;5031560;28;20653;-66
2022/02/22 03:07:41;;;;;;;15.70;3.83;;;5.00;1.00;;;;;;5031721;28;20234;-66
2022/02/22 03:10:09;;;;;;;15.63;2.80;;;4.90;1.00;;;;;;5032785;28;20570;-66
2022/02/22 03:12:36;;;;;;;12.30;2.40;;;4.90;99.90;;;;;;5030390;28;20206;-66
2022/02/22 03:15:05;;;;;;;9.87;2.30;;;4.90;1.00;;;;;;5032035;28;20216;-67
2022/02/22 03:17:33;;;;;;;8.33;2.07;;;4.80;1.00;;;;;;5031600;28;20207;-66
2022/02/22 03:19:59;;;;;;;9.23;2.23;;;4.70;1.00;;;;;;5032075;28;20208;-66
2022/02/22 03:22:26;;;;;;;11.53;2.43;;;4.70;99.90;;;;;;5027026;28;20204;-66
2022/02/22 03:24:53;;;;;;;13.17;2.07;;;4.70;99.90;;;;;;5031849;28;20196;-66
2022/02/22 03:27:20;;;;;;;9.13;2.03;;;4.70;1.00;;;;;;5031366;28;20224;-67
2022/02/22 03:29:47;;;;;;;14.47;2.80;;;4.70;1.00;;;;;;5031025;28;20213;-67
2022/02/22 03:32:15;;;;;;;8.33;2.30;;;4.60;1.00;;;;;;5032538;28;20199;-67
2022/02/22 03:34:42;;;;;;;10.27;3.00;;;4.50;1.00;;;;;;5031238;28;20196;-67
2022/02/22 03:37:10;;;;;;;9.90;2.50;;;4.50;50.70;;;;;;5031254;28;20669;-67
2022/02/22 03:39:36;;;;;;;15.63;2.73;;;4.40;99.90;;;;;;5032223;28;20199;-67
2022/02/22 03:42:04;;;;;;;15.13;2.97;;;4.50;90.00;;;;;;5031264;28;20710;-67
2022/02/22 03:44:31;;;;;;;15.13;3.20;;;4.50;84.60;;;;;;5030920;28;20206;-67
2022/02/22 03:46:57;;;;;;;15.60;4.30;;;4.50;1.00;;;;;;5031182;28;20708;-67
2022/02/22 03:49:25;;;;;;;19.07;3.90;;;4.50;1.00;;;;;;5033413;28;20211;-67
2022/02/22 03:51:52;;;;;;;22.77;4.60;;;4.60;1.00;;;;;;5034983;28;20204;-67
2022/02/22 03:54:19;;;;;;;16.00;3.43;;;4.60;1.00;;;;;;5034966;28;20569;-67
2022/02/22 03:56:46;;;;;;;16.57;3.20;;;4.60;99.90;;;;;;5035415;28;20567;-67
2022/02/22 03:59:13;;;;;;;11.30;2.60;;;4.50;1.00;;;;;;5035600;28;20203;-67
2022/02/22 04:01:40;;;;;;;18.33;2.53;;;4.20;1.00;;;;;;5035794;28;20210;-67
2022/02/22 04:04:07;;;;;;;18.50;3.87;;;4.10;9.70;;;;;;5035765;28;20744;-74
2022/02/22 04:06:35;;;;;;;16.53;3.40;;;4.00;99.90;;;;;;5035420;28;20199;-74
2022/02/22 04:09:02;;;;;;;19.80;3.60;;;4.10;1.00;;;;;;5035521;28;20214;-74
2022/02/22 04:11:29;;;;;;;21.17;3.70;;;4.00;1.00;;;;;;5035681;28;20290;-73
2022/02/22 04:13:55;;;;;;;21.93;4.13;;;4.00;73.00;;;;;;5035164;28;20691;-73
2022/02/22 04:16:22;;;;;;;25.57;4.10;;;4.10;99.90;;;;;;5033411;28;20194;-74
2022/02/22 04:18:49;;;;;;;24.27;4.70;;;4.10;99.90;;;;;;5033627;28;20211;-74
2022/02/22 04:21:16;;;;;;;22.67;3.90;;;4.20;99.90;;;;;;5035107;28;20215;-74
2022/02/22 04:23:44;;;;;;;17.47;4.80;;;4.20;45.40;;;;;;5035345;28;20214;-73
2022/02/22 04:26:11;;;;;;;19.97;4.70;;;4.30;1.00;;;;;;5035104;28;20217;-74
2022/02/22 04:28:38;;;;;;;21.97;3.90;;;4.30;1.00;;;;;;5035394;28;20226;-74
2022/02/22 04:31:05;;;;;;;22.50;4.60;;;4.30;1.00;;;;;;5035228;28;20208;-74
2022/02/22 04:33:31;;;;;;;22.80;4.83;;;4.30;1.00;;;;;;5034981;28;20200;-74
2022/02/22 04:35:58;;;;;;;22.17;4.47;;;4.30;1.00;;;;;;5034980;28;20214;-74
2022/02/22 04:38:25;;;;;;;24.97;4.13;;;4.30;1.00;;;;;;5035654;28;20667;-74
2022/02/22 04:40:53;;;;;;;20.67;4.33;;;4.30;1.00;;;;;;5035138;28;20210;-74
2022/02/22 04:43:20;;;;;;;29.70;4.10;;;4.20;99.90;;;;;;5034328;28;20218;-75
2022/02/22 04:45:47;;;;;;;26.00;4.27;;;4.20;76.10;;;;;;5034309;28;20210;-74
2022/02/22 04:48:14;;;;;;;22.77;4.10;;;4.20;19.50;;;;;;5034969;28;20214;-74
2022/02/22 04:50:41;;;;;;;22.50;3.63;;;4.20;96.40;;;;;;5034205;28;20294;-74
2022/02/22 04:53:09;;;;;;;33.07;5.43;;;4.20;99.90;;;;;;5034870;28;20214;-74
2022/02/22 04:55:36;;;;;;;20.00;3.70;;;4.30;99.90;;;;;;5034449;28;20229;-74
2022/02/22 04:58:04;;;;;;;22.70;3.87;;;4.30;99.90;;;;;;5034936;28;20203;-74
2022/02/22 05:00:31;;;;;;;23.47;4.37;;;4.40;99.90;;;;;;5033695;28;20653;-74
2022/02/22 05:02:58;;;;;;;24.13;4.77;;;4.50;1.00;;;;;;5034324;28;20208;-74
2022/02/22 05:05:25;;;;;;;18.43;5.77;;;4.50;1.00;;;;;;5034659;28;20595;-74
2022/02/22 05:07:52;;;;;;;25.27;4.53;;;4.50;99.90;;;;;;5034751;28;20238;-74
2022/02/22 05:10:19;;;;;;;19.87;3.73;;;4.60;92.00;;;;;;5033658;28;20206;-74
2022/02/22 05:12:46;;;;;;;21.07;3.80;;;4.40;1.00;;;;;;5033929;28;20207;-74
2022/02/22 05:15:14;;;;;;;23.63;4.30;;;4.50;99.90;;;;;;5033765;28;20582;-74
2022/02/22 05:17:41;;;;;;;20.60;4.13;;;4.40;1.00;;;;;;5034129;28;20196;-73
2022/02/22 05:20:09;;;;;;;16.57;4.00;;;4.50;1.00;;;;;;5033856;28;20679;-74
2022/02/22 05:22:40;;;;;;;20.20;5.00;;;4.50;1.00;;;;;;5034895;28;20211;-74
2022/02/22 05:25:08;;;;;;;23.33;3.87;;;4.50;1.00;;;;;;5034318;28;20261;-74
2022/02/22 05:27:35;;;;;;;18.73;3.90;;;4.60;1.00;;;;;;5034043;28;20242;-75
2022/02/22 05:30:03;;;;;;;20.37;4.87;;;4.60;99.90;;;;;;5033804;28;20208;-74
2022/02/22 05:32:32;;;;;;;21.20;4.23;;;4.70;99.90;;;;;;5034899;28;20239;-74
2022/02/22 05:35:00;;;;;;;23.47;4.20;;;4.70;1.00;;;;;;5032295;28;20570;-74
2022/02/22 05:37:27;;;;;;;20.67;3.73;;;4.70;1.00;;;;;;5033814;28;20298;-74
2022/02/22 05:39:55;;;;;;;19.37;3.47;;;4.70;99.90;;;;;;5031769;28;20283;-74
2022/02/22 05:42:22;;;;;;;18.13;3.50;;;4.70;1.00;;;;;;5033675;28;20210;-74
2022/02/22 05:44:49;;;;;;;23.13;4.67;;;4.60;1.00;;;;;;5033045;28;20216;-74
2022/02/22 05:47:16;;;;;;;23.70;4.63;;;4.50;1.00;;;;;;5033609;28;20230;-74
2022/02/22 05:49:46;;;;;;;20.93;5.07;;;4.40;1.00;;;;;;5034266;28;20210;-74
2022/02/22 05:52:13;;;;;;;26.63;5.47;;;4.40;1.00;;;;;;5032715;28;20207;-74
2022/02/22 05:54:40;;;;;;;23.37;4.33;;;4.30;99.90;;;;;;5028371;28;20213;-74
2022/02/22 05:57:07;;;;;;;23.50;5.77;;;4.30;99.90;;;;;;5033031;28;20208;-74
2022/02/22 05:59:34;;;;;;;28.03;4.77;;;4.20;99.90;;;;;;5033117;28;20215;-74
2022/02/22 06:02:01;;;;;;;15.87;3.57;;;4.20;99.90;;;;;;5033783;28;20218;-74
2022/02/22 06:04:28;;;;;;;24.13;3.67;;;4.10;1.00;;;;;;5033573;28;20207;-74
2022/02/22 06:06:56;;;;;;;19.73;3.97;;;4.10;1.00;;;;;;5033243;28;20208;-74
2022/02/22 06:09:23;;;;;;;20.93;4.30;;;4.10;1.00;;;;;;5033772;28;20287;-75
2022/02/22 06:11:50;;;;;;;19.20;4.17;;;4.10;1.00;;;;;;5032673;28;20671;-74
2022/02/22 06:14:17;;;;;;;23.43;4.43;;;4.20;99.90;;;;;;5069532;22;20224;-73
2022/02/22 06:16:44;;;;;;;25.23;3.87;;;4.20;99.90;;;;;;5071790;28;20205;-74
2022/02/22 06:19:11;;;;;;;18.53;3.47;;;4.20;99.90;;;;;;5073380;28;20676;-73
2022/02/22 06:21:37;;;;;;;16.03;3.77;;;4.20;1.00;;;;;;5072771;28;20197;-74
2022/02/22 06:24:06;;;;;;;27.10;4.77;;;4.20;1.00;;;;;;5072931;28;20213;-74
2022/02/22 06:26:33;;;;;;;17.17;4.30;;;4.20;1.00;;;;;;5072703;28;20209;-73
2022/02/22 06:29:01;;;;;;;22.00;4.60;;;4.20;99.90;;;;;;5071976;28;20253;-73
2022/02/22 06:31:28;;;;;;;17.40;5.30;;;4.20;99.90;;;;;;5072580;28;20213;-74
2022/02/22 06:33:54;;;;;;;21.83;5.40;;;4.10;99.90;;;;;;5073070;28;20565;-74
2022/02/22 06:36:21;;;;;;;21.70;3.67;;;4.20;97.70;;;;;;5071935;28;20209;-74
2022/02/22 06:38:50;;;;;;;26.37;4.63;;;4.20;99.90;;;;;;5072343;28;20699;-74
2022/02/22 06:41:18;;;;;;;25.17;4.70;;;4.20;1.00;;;;;;5073498;28;20206;-74
2022/02/22 06:43:45;;;;;;;30.70;4.30;;;4.30;1.00;;;;;;5071856;28;20202;-74
2022/02/22 06:46:11;;;;;;;25.73;4.93;;;4.30;1.00;;;;;;5072928;28;20198;-74
2022/02/22 06:48:38;;;;;;;26.17;4.10;;;4.40;1.00;;;;;;5072651;28;20226;-74
2022/02/22 06:51:07;;;;;;;22.37;4.23;;;4.40;1.00;;;;;;5072408;28;20532;-74
2022/02/22 06:53:34;;;;;;;25.23;4.40;;;4.30;1.00;;;;;;5072969;28;20311;-74
2022/02/22 06:56:02;;;;;;;22.77;3.17;;;4.40;99.90;;;;;;5071995;28;20238;-74
2022/02/22 06:58:30;;;;;;;21.03;3.83;;;4.40;99.90;;;;;;5072028;28;20340;-73
2022/02/22 07:00:58;;;;;;;20.30;3.83;;;4.40;99.90;;;;;;5072740;28;20202;-73
2022/02/22 07:03:26;;;;;;;22.63;3.97;;;4.40;99.90;;;;;;5072217;28;20202;-75
2022/02/22 07:05:53;;;;;;;19.23;4.10;;;4.40;99.90;;;;;;5071621;28;20971;-74
2022/02/22 07:08:20;;;;;;;17.97;3.77;;;4.40;99.90;;;;;;5071919;28;20229;-74
2022/02/22 07:10:46;;;;;;;19.07;3.80;;;4.50;99.90;;;;;;5072302;28;20276;-74
2022/02/22 07:13:13;;;;;;;20.53;3.67;;;4.50;99.90;;;;;;5072055;28;20218;-74
2022/02/22 07:15:42;;;;;;;19.93;4.00;;;4.50;99.90;;;;;;5071012;28;20209;-74
2022/02/22 07:18:10;;;;;;;17.07;3.97;;;4.50;99.90;;;;;;5072363;28;20753;-72
2022/02/22 07:20:37;;;;;;;16.50;3.90;;;4.50;90.70;;;;;;5072510;28;20206;-71
2022/02/22 07:23:05;;;;;;;20.97;3.63;;;4.60;1.00;;;;;;5071324;28;20202;-72
2022/02/22 07:25:33;;;;;;;22.13;3.87;;;4.70;1.00;;;;;;5072355;28;20597;-72
2022/02/22 07:28:01;;;;;;;20.93;4.90;;;4.90;1.00;;;;;;5071429;28;20726;-72
2022/02/22 07:30:29;;;;;;;16.97;4.07;;;4.90;1.00;;;;;;5070962;28;20198;-71
2022/02/22 07:32:59;;;;;;;25.00;3.93;;;5.00;1.00;;;;;;5072265;28;20209;-72
2022/02/22 07:35:27;;;;;;;15.97;3.20;;;5.10;99.90;;;;;;5071514;28;20209;-72
2022/02/22 07:37:54;;;;;;;24.50;4.67;;;5.10;99.90;;;;;;5071944;28;20213;-73
2022/02/22 07:40:22;;;;;;;32.70;6.80;;;5.10;99.90;;;;;;5072101;28;20208;-72
2022/02/22 07:42:49;;;;;;;22.87;4.17;;;5.20;99.90;;;;;;5071771;28;20209;-73
2022/02/22 07:45:16;;;;;;;18.37;2.80;;;5.20;99.90;;;;;;5070804;28;20650;-73
2022/02/22 07:47:44;;;;;;;23.30;5.27;;;5.20;99.90;;;;;;5072193;28;20551;-72
2022/02/22 07:50:13;;;;;;;29.17;3.93;;;5.20;3.30;;;;;;5071320;28;20198;-73
2022/02/22 07:52:40;;;;;;;19.27;3.90;;;5.20;99.90;;;;;;5072067;28;20213;-72
2022/02/22 07:55:08;;;;;;;24.40;4.97;;;5.40;90.00;;;;;;5071378;28;20202;-73
2022/02/22 07:57:35;;;;;;;20.60;3.47;;;5.40;1.00;;;;;;5070858;28;20202;-73
2022/02/22 08:00:03;;;;;;;25.90;4.33;;;5.50;1.00;;;;;;5071437;28;20213;-73
2022/02/22 08:02:30;;;;;;;27.67;4.00;;;5.90;1.00;;;;;;5072104;28;20202;-72
2022/02/22 08:04:57;;;;;;;19.73;4.30;;;5.90;1.00;;;;;;5071316;28;20808;-74
2022/02/22 08:07:26;;;;;;;23.80;4.40;;;5.80;1.00;;;;;;5071016;28;20202;-73
2022/02/22 08:09:53;;;;;;;20.50;4.03;;;5.70;99.90;;;;;;5071090;28;20352;-73
2022/02/22 08:12:20;;;;;;;18.13;4.00;;;5.60;1.00;;;;;;5071422;28;20214;-72
2022/02/22 08:14:47;;;;;;;22.67;4.00;;;5.60;1.00;;;;;;5071239;28;20224;-74
2022/02/22 08:17:13;;;;;;;19.17;4.10;;;5.60;1.00;;;;;;5071264;28;20206;-73
2022/02/22 08:19:40;;;;;;;17.07;3.53;;;5.50;1.00;;;;;;5072064;28;20652;-72
2022/02/22 08:22:07;;;;;;;19.03;3.60;;;5.60;99.90;;;;;;5071876;28;20296;-72
2022/02/22 08:24:35;;;;;;;16.47;3.30;;;5.60;99.90;;;;;;5071869;28;20544;-73
2022/02/22 08:27:03;;;;;;;25.93;4.60;;;5.60;99.90;;;;;;5071568;28;20293;-72
2022/02/22 08:29:31;;;;;;;21.43;4.50;;;5.60;99.90;;;;;;5071697;28;20210;-73
2022/02/22 08:31:58;;;;;;;21.17;3.80;;;5.60;99.90;;;;;;5072049;28;20207;-72
2022/02/22 08:34:25;;;;;;;22.17;4.10;;;5.60;99.90;;;;;;5071677;28;20202;-73
2022/02/22 08:36:52;;;;;;;23.33;4.53;;;5.70;38.10;;;;;;5074350;28;20232;-73
2022/02/22 08:39:22;;;;;;;23.73;4.60;;;6.00;1.00;;;;;;5075224;28;20293;-72
2022/02/22 08:41:50;;;;;;;21.33;3.70;;;6.00;1.00;;;;;;5075580;28;20255;-72
2022/02/22 08:44:17;;;;;;;21.07;3.90;;;6.10;99.90;;;;;;5075247;28;20212;-73
2022/02/22 08:46:44;;;;;;;21.73;4.00;;;6.10;99.90;;;;;;5075138;28;20198;-73
2022/02/22 08:49:11;;;;;;;26.13;5.53;;;6.30;99.90;;;;;;5075132;28;20232;-73
2022/02/22 08:51:39;;;;;;;28.10;5.40;;;6.30;28.40;;;;;;5075216;28;20206;-73
2022/02/22 08:54:08;;;;;;;18.23;3.77;;;6.20;99.90;;;;;;5075109;28;20657;-73
2022/02/22 08:56:35;;;;;;;20.63;4.37;;;6.30;1.00;;;;;;5075167;28;20627;-73
2022/02/22 08:59:03;;;;;;;23.87;4.37;;;6.50;82.50;;;;;;5075160;28;20202;-73
2022/02/22 09:01:30;;;;;;;18.73;3.87;;;6.80;1.00;;;;;;5075151;28;20656;-73
2022/02/22 09:03:57;;;;;;;31.47;4.13;;;6.90;1.00;;;;;;5075025;28;20252;-72
2022/02/22 09:06:24;;;;;;;22.83;4.43;;;6.80;4.50;;;;;;5074708;28;20210;-72
2022/02/22 09:08:51;;;;;;;20.60;4.10;;;7.20;1.00;;;;;;5074782;28;20226;-73
2022/02/22 09:11:18;;;;;;;30.07;4.60;;;6.90;1.00;;;;;;5075009;28;20206;-72
2022/02/22 09:13:45;;;;;;;18.93;4.40;;;6.90;99.90;;;;;;5074847;28;20230;-68
2022/02/22 09:16:13;;;;;;;21.93;4.30;;;7.00;99.90;;;;;;5074670;28;20577;-68
2022/02/22 09:18:40;;;;;;;19.23;3.50;;;7.30;94.70;;;;;;5074738;28;20220;-68
2022/02/22 09:21:07;;;;;;;21.13;4.40;;;7.20;99.90;;;;;;5074598;28;20288;-68
2022/02/22 09:23:34;;;;;;;19.43;4.27;;;7.20;1.00;;;;;;5074811;28;20202;-67
2022/02/22 09:26:01;;;;;;;20.97;4.43;;;7.10;61.80;;;;;;5074331;28;20198;-68
2022/02/22 09:28:28;;;;;;;23.10;4.30;;;7.00;91.60;;;;;;5074655;28;20707;-67
2022/02/22 09:30:55;;;;;;;23.47;4.67;;;7.20;99.90;;;;;;5074499;28;20675;-67
2022/02/22 09:33:23;;;;;;;22.30;4.10;;;7.40;1.00;;;;;;5074461;28;20202;-67
2022/02/22 09:35:50;;;;;;;19.57;3.93;;;7.30;1.00;;;;;;5074167;28;20629;-67
2022/02/22 09:38:17;;;;;;;21.93;4.27;;;7.30;1.00;;;;;;5074323;28;20297;-68
2022/02/22 09:40:45;;;;;;;15.60;3.70;;;7.50;99.90;;;;;;5074446;28;20242;-67
2022/02/22 09:43:11;;;;;;;15.97;3.57;;;7.60;99.90;;;;;;5069102;28;20198;-68
2022/02/22 09:45:39;;;;;;;18.60;3.87;;;7.60;99.90;;;;;;5076332;28;20207;-67
2022/02/22 09:48:07;;;;;;;17.97;3.37;;;7.40;1.00;;;;;;5073680;28;20211;-68
2022/02/22 09:50:36;;;;;;;21.53;4.00;;;7.30;1.00;;;;;;5074154;28;20232;-67
2022/02/22 09:53:04;;;;;;;20.83;4.60;;;7.30;1.00;;;;;;5074030;28;20656;-67
2022/02/22 09:55:31;;;;;;;21.10;4.50;;;7.50;1.00;;;;;;5064794;28;20298;-67
2022/02/22 09:57:58;;;;;;;21.80;4.13;;;7.40;1.00;;;;;;5073324;28;20209;-68
2022/02/22 10:00:28;;;;;;;19.87;4.47;;;7.40;1.00;;;;;;5072619;28;20194;-67
2022/02/22 10:02:54;;;;;;;17.00;4.27;;;7.40;1.00;;;;;;5074080;28;20288;-68
2022/02/22 10:05:23;;;;;;;22.60;4.50;;;7.40;1.00;;;;;;5073598;28;20206;-67
2022/02/22 10:07:55;;;;;;;16.13;3.43;;;7.50;1.00;;;;;;5073713;28;20232;-68
2022/02/22 10:10:35;;;;;;;18.80;4.43;;;7.60;99.90;;;;;;5073005;28;20687;-68
2022/02/22 10:13:03;;;;;;;16.40;3.43;;;7.90;99.90;;;;;;5073345;28;20212;-67
2022/02/22 10:15:35;;;;;;;16.20;4.17;;;8.20;99.90;;;;;;5072622;28;20217;-67
2022/02/22 10:18:03;;;;;;;19.27;3.40;;;8.30;1.00;;;;;;5073698;28;20206;-68
2022/02/22 10:20:30;;;;;;;17.47;3.13;;;8.80;1.00;;;;;;5072831;28;20224;-67
2022/02/22 10:22:59;;;;;;;20.63;3.40;;;8.70;99.90;;;;;;5073296;28;20212;-67
2022/02/22 10:25:26;;;;;;;21.00;3.80;;;8.60;99.90;;;;;;5072958;28;20260;-67
2022/02/22 10:27:55;;;;;;;15.27;2.93;;;8.90;99.90;;;;;;5073071;28;20217;-68
2022/02/22 10:30:41;;;;;;;16.83;3.40;;;8.80;10.60;;;;;;5073001;28;20713;-67
2022/02/22 10:33:16;;;;;;;12.10;3.50;;;8.60;1.00;;;;;;5072510;28;20568;-67
2022/02/22 10:35:46;;;;;;;18.10;4.30;;;8.60;99.90;;;;;;5072921;28;20202;-68
2022/02/22 10:38:18;;;;;;;16.13;3.27;;;8.60;1.00;;;;;;5072250;28;20248;-67
2022/02/22 10:40:52;;;;;;;17.77;3.03;;;8.50;1.00;;;;;;5073066;28;20289;-68
2022/02/22 10:43:27;;;;;;;16.13;3.07;;;8.50;99.90;;;;;;5072309;28;20212;-67
2022/02/22 10:45:56;;;;;;;12.80;3.13;;;8.30;1.00;;;;;;5071139;28;20205;-68
2022/02/22 10:48:28;;;;;;;15.73;3.67;;;8.40;99.90;;;;;;5071836;28;20233;-67
2022/02/22 10:50:57;;;;;;;17.23;3.23;;;8.40;1.00;;;;;;5073041;28;20206;-67
2022/02/22 10:53:33;;;;;;;20.10;3.90;;;8.70;1.00;;;;;;5072111;28;20652;-68
2022/02/22 10:56:01;;;;;;;16.10;3.10;;;8.60;1.00;;;;;;5072068;28;20701;-67
2022/02/22 10:58:28;;;;;;;12.80;2.73;;;8.70;1.00;;;;;;5070906;28;20206;-67
2022/02/22 11:00:55;;;;;;;13.50;2.80;;;8.50;1.00;;;;;;5072006;28;20236;-67
2022/02/22 11:03:22;;;;;;;21.57;3.70;;;8.50;1.00;;;;;;5071866;28;20198;-68
2022/02/22 11:05:50;;;;;;;13.13;3.27;;;8.50;1.00;;;;;;5071640;28;20302;-67
2022/02/22 11:08:25;;;;;;;16.67;3.10;;;8.70;1.00;;;;;;5072516;28;20206;-68
2022/02/22 11:10:56;;;;;;;15.57;3.33;;;8.40;1.00;;;;;;5071621;28;20701;-67
2022/02/22 11:13:28;;;;;;;22.03;3.70;;;8.50;1.00;;;;;;5071209;28;20203;-67
2022/02/22 11:15:55;;;;;;;14.20;4.10;;;8.40;1.00;;;;;;5071009;28;20210;-67
2022/02/22 11:18:24;;;;;;;19.30;3.40;;;8.50;1.00;;;;;;5071775;28;20206;-68
2022/02/22 11:20:52;;;;;;;20.47;3.73;;;8.50;1.00;;;;;;5072467;28;20293;-68
2022/02/22 11:23:28;;;;;;;19.77;3.57;;;8.50;1.00;;;;;;5072362;28;20429;-68
2022/02/22 11:26:07;;;;;;;13.07;3.07;;;8.50;1.00;;;;;;5071915;28;20212;-67
2022/02/22 11:28:39;;;;;;;12.10;2.80;;;8.70;1.00;;;;;;5072212;28;20695;-68
2022/02/22 11:31:10;;;;;;;13.40;2.83;;;8.60;1.00;;;;;;5071729;28;20683;-68
2022/02/22 11:33:45;;;;;;;15.33;3.43;;;8.70;1.00;;;;;;5071911;28;20221;-68
2022/02/22 11:36:13;;;;;;;14.17;3.03;;;8.70;1.00;;;;;;5071090;28;20216;-68
2022/02/22 11:38:45;;;;;;;16.67;3.53;;;8.80;1.00;;;;;;5072256;28;20213;-68
2022/02/22 11:41:22;;;;;;;15.03;3.00;;;9.00;1.00;;;;;;5071473;28;20198;-67
2022/02/22 11:43:58;;;;;;;14.10;2.67;;;8.90;1.00;;;;;;5072221;28;20652;-68
2022/02/22 11:46:41;;;;;;;15.97;2.93;;;8.80;1.00;;;;;;5070955;28;20659;-68
2022/02/22 11:49:10;;;;;;;11.37;3.70;;;8.80;1.00;;;;;;5070999;28;20230;-67
2022/02/22 11:51:42;;;;;;;24.73;4.40;;;8.90;1.00;;;;;;5071382;28;20567;-68
2022/02/22 11:54:20;;;;;;;14.97;3.03;;;8.90;1.00;;;;;;5071360;28;20225;-67
2022/02/22 11:57:00;;;;;;;15.17;3.07;;;8.90;1.00;;;;;;5071496;28;20215;-68
2022/02/22 11:59:30;;;;;;;17.90;3.30;;;8.90;1.00;;;;;;5051744;28;20207;-68
2022/02/22 12:01:58;;;;;;;15.50;2.73;;;8.90;1.00;;;;;;5051222;28;20580;-68
2022/02/22 12:04:27;;;;;;;14.93;3.70;;;8.90;1.00;;;;;;5052057;28;20206;-68
2022/02/22 12:06:56;;;;;;;15.43;3.00;;;8.90;1.00;;;;;;5051200;28;20576;-68
2022/02/22 12:09:34;;;;;;;16.90;2.90;;;8.90;1.00;;;;;;5070018;28;20230;-67
2022/02/22 12:12:08;;;;;;;16.60;3.30;;;8.90;1.00;;;;;;5074173;28;20210;-68
2022/02/22 12:14:36;;;;;;;18.57;3.10;;;8.90;51.80;;;;;;5075997;28;20218;-68
2022/02/22 12:17:09;;;;;;;18.73;3.53;;;8.90;1.00;;;;;;5074732;28;20300;-68
2022/02/22 12:19:35;;;;;;;14.13;3.50;;;8.90;1.00;;;;;;5075569;28;20208;-68
2022/02/22 12:22:03;;;;;;;13.87;3.53;;;8.80;1.00;;;;;;5075117;28;20208;-68
2022/02/22 12:24:30;;;;;;;14.37;4.33;;;8.80;1.00;;;;;;5074564;28;20289;-67
2022/02/22 12:26:57;;;;;;;14.57;3.40;;;8.80;1.00;;;;;;5074341;28;20210;-67
2022/02/22 12:29:25;;;;;;;15.87;3.77;;;8.80;1.00;;;;;;5074982;28;20232;-68
2022/02/22 12:31:55;;;;;;;13.60;3.20;;;8.80;1.00;;;;;;5074459;28;20293;-67
2022/02/22 12:34:24;;;;;;;18.93;4.17;;;8.80;99.90;;;;;;5074632;28;20546;-68
2022/02/22 12:36:54;;;;;;;13.33;4.27;;;8.90;99.90;;;;;;5074977;28;20201;-68
2022/02/22 12:39:23;;;;;;;17.60;2.90;;;9.00;99.90;;;;;;5075186;28;20671;-68
2022/02/22 12:41:51;;;;;;;13.67;3.83;;;9.00;99.90;;;;;;5075222;28;20605;-68
2022/02/22 12:44:20;;;;;;;15.17;2.90;;;9.00;99.90;;;;;;5054993;28;20297;-68
2022/02/22 12:46:51;;;;;;;10.37;3.70;;;9.00;99.90;;;;;;5064817;28;20207;-67
2022/02/22 12:49:20;;;;;;;15.13;3.33;;;8.80;99.90;;;;;;5073947;28;20198;-68
2022/02/22 12:51:49;;;;;;;13.00;3.47;;;8.70;17.10;;;;;;5073972;28;20206;-68
2022/02/22 12:54:18;;;;;;;13.63;2.97;;;8.70;99.90;;;;;;5074301;28;20210;-67
2022/02/22 12:56:49;;;;;;;10.03;3.40;;;8.60;99.90;;;;;;5073914;28;20214;-68